Terminal Aerodrome Forecast
Issued by NWS

Home | Current Version | Previous Version | Text Only | Print | Product List | Glossary On
Versions: 1 2 3 4 5 6 7 8 9 10 11 12 13 14 15 16
000
FTUS46 KMTR 281100
TAFSTS
TAF
KSTS 281120Z 2812/2912 00000KT 6SM BR OVC004
     FM281500 VRB02KT P6SM BKN008
     FM281700 VRB03KT P6SM SCT010
     FM281900 19006KT P6SM FEW012
     FM282200 18010KT P6SM SKC
     FM290500 VRB03KT P6SM BKN012=

USA.gov is the U.S. government's official web portal to all federal, state and local government web resources and services.